RYR62XF EBCI-EPPO
Flight info
| Callsign | RYR62XF |
|---|---|
| Flight time | 1h 13m |
| Altitude | 23000 |
| Route | LNO M170 KENUM/N0441F370 N853 ONUNE DCT POVEL DCT ADLIR L980 KELOD |
| Aircraft | B38M/M-SDE1FGHILORVWXY/HB1 |
Departure
| Time | 2026-05-03 20:56 |
|---|---|
| Airport | Brussels South Charleroi Airport (EBCI) |
Arrival
| Time | 2026-05-03 22:10 |
|---|---|
| Airport | Poznań-Ławica Airport (EPPO) |
| Time | Latitude | Longitude | Altitude | Speed | Heading |
|---|---|---|---|---|---|
| 2026-05-03 20:31 | 50.46841 | 4.46985 | 592 ft | 0 kts | 336° |
| 2026-05-03 20:47 | 50.46844 | 4.46983 | 587 ft | 1 kts | 336° |
| 2026-05-03 20:48 | 50.46843 | 4.46983 | 587 ft | 3 kts | 336° |
| 2026-05-03 20:48 | 50.46820 | 4.47000 | 587 ft | 4 kts | 331° |
| 2026-05-03 20:48 | 50.46801 | 4.47026 | 587 ft | 4 kts | 294° |
| 2026-05-03 20:48 | 50.46799 | 4.47062 | 588 ft | 3 kts | 247° |
| 2026-05-03 20:49 | 50.46801 | 4.47066 | 588 ft | 0 kts | 245° |
| 2026-05-03 20:53 | 50.46800 | 4.47066 | 588 ft | 0 kts | 245° |
| 2026-05-03 20:53 | 50.46795 | 4.47047 | 588 ft | 3 kts | 245° |
| 2026-05-03 20:53 | 50.46782 | 4.47001 | 588 ft | 6 kts | 245° |
| 2026-05-03 20:53 | 50.46762 | 4.46934 | 588 ft | 8 kts | 245° |
| 2026-05-03 20:54 | 50.46739 | 4.46853 | 589 ft | 9 kts | 245° |
| 2026-05-03 20:54 | 50.46608 | 4.46824 | 595 ft | 0 kts | 156° |
| 2026-05-03 20:54 | 50.46606 | 4.46825 | 595 ft | 0 kts | 156° |
| 2026-05-03 20:55 | 50.46577 | 4.46846 | 596 ft | 11 kts | 156° |
| 2026-05-03 20:55 | 50.46480 | 4.46908 | 596 ft | 16 kts | 172° |
| 2026-05-03 20:55 | 50.46444 | 4.46870 | 597 ft | 7 kts | 249° |
| 2026-05-03 20:55 | 50.46401 | 4.46718 | 595 ft | 35 kts | 245° |
| 2026-05-03 20:56 | 50.46180 | 4.45960 | 594 ft | 114 kts | 246° |
| 2026-05-03 20:56 | 50.45762 | 4.44519 | 685 ft | 166 kts | 243° |
| 2026-05-03 20:56 | 50.45291 | 4.42815 | 1449 ft | 175 kts | 243° |
| 2026-05-03 20:56 | 50.44797 | 4.40998 | 2225 ft | 187 kts | 243° |
| 2026-05-03 20:57 | 50.44248 | 4.39050 | 2987 ft | 206 kts | 243° |
| 2026-05-03 20:57 | 50.43633 | 4.36939 | 3860 ft | 217 kts | 244° |
| 2026-05-03 20:57 | 50.43008 | 4.34785 | 5062 ft | 219 kts | 244° |
| 2026-05-03 20:57 | 50.42370 | 4.32586 | 6114 ft | 223 kts | 243° |
| 2026-05-03 20:58 | 50.41712 | 4.30313 | 6785 ft | 232 kts | 244° |
| 2026-05-03 20:58 | 50.40938 | 4.28114 | 6891 ft | 229 kts | 226° |
| 2026-05-03 20:58 | 50.39627 | 4.26760 | 6968 ft | 230 kts | 200° |
| 2026-05-03 20:58 | 50.38046 | 4.26407 | 7709 ft | 231 kts | 179° |
| 2026-05-03 20:59 | 50.36468 | 4.27030 | 8708 ft | 241 kts | 156° |
| 2026-05-03 20:59 | 50.35112 | 4.28642 | 9692 ft | 250 kts | 141° |
| 2026-05-03 20:59 | 50.33811 | 4.30513 | 10506 ft | 261 kts | 136° |
| 2026-05-03 20:59 | 50.32886 | 4.33047 | 11047 ft | 287 kts | 107° |
| 2026-05-03 21:00 | 50.32825 | 4.36281 | 11585 ft | 312 kts | 79° |
| 2026-05-03 21:00 | 50.33215 | 4.38543 | 11937 ft | 325 kts | 76° |
| 2026-05-03 21:00 | 50.33982 | 4.43265 | 12677 ft | 348 kts | 77° |
| 2026-05-03 21:00 | 50.34565 | 4.47004 | 13382 ft | 358 kts | 78° |
| 2026-05-03 21:01 | 50.35150 | 4.50820 | 14223 ft | 362 kts | 78° |
| 2026-05-03 21:01 | 50.35738 | 4.54684 | 14996 ft | 367 kts | 78° |
| 2026-05-03 21:01 | 50.36330 | 4.58596 | 15772 ft | 371 kts | 78° |
| 2026-05-03 21:01 | 50.36927 | 4.62557 | 16529 ft | 375 kts | 78° |
| 2026-05-03 21:02 | 50.37529 | 4.66563 | 17261 ft | 380 kts | 78° |
| 2026-05-03 21:02 | 50.38136 | 4.70612 | 17996 ft | 384 kts | 78° |
| 2026-05-03 21:02 | 50.38741 | 4.74654 | 18643 ft | 388 kts | 79° |
| 2026-05-03 21:02 | 50.39366 | 4.78846 | 19273 ft | 392 kts | 79° |
| 2026-05-03 21:03 | 50.39980 | 4.82971 | 19885 ft | 395 kts | 79° |
| 2026-05-03 21:03 | 50.40606 | 4.87194 | 20486 ft | 399 kts | 79° |
| 2026-05-03 21:03 | 50.41237 | 4.91453 | 21091 ft | 403 kts | 79° |
| 2026-05-03 21:03 | 50.41923 | 4.95730 | 21668 ft | 408 kts | 72° |
| 2026-05-03 21:04 | 50.43154 | 4.99765 | 22283 ft | 413 kts | 59° |
| 2026-05-03 21:04 | 50.44708 | 5.03585 | 22840 ft | 417 kts | 59° |
| 2026-05-03 21:04 | 50.46272 | 5.07455 | 23414 ft | 421 kts | 59° |
| 2026-05-03 21:04 | 50.47848 | 5.11353 | 23873 ft | 425 kts | 59° |
| 2026-05-03 21:05 | 50.49437 | 5.15289 | 24324 ft | 429 kts | 59° |
| 2026-05-03 21:05 | 50.51018 | 5.19210 | 24761 ft | 432 kts | 59° |
| 2026-05-03 21:05 | 50.52633 | 5.23220 | 25199 ft | 436 kts | 59° |
| 2026-05-03 21:05 | 50.54260 | 5.27267 | 25670 ft | 439 kts | 59° |
| 2026-05-03 21:06 | 50.55894 | 5.31341 | 26110 ft | 442 kts | 59° |
| 2026-05-03 21:06 | 50.57543 | 5.35454 | 26526 ft | 446 kts | 59° |
| 2026-05-03 21:06 | 50.59200 | 5.39595 | 26943 ft | 449 kts | 59° |
| 2026-05-03 21:06 | 50.60869 | 5.43773 | 27362 ft | 452 kts | 59° |
| 2026-05-03 21:07 | 50.62546 | 5.47978 | 27758 ft | 456 kts | 59° |
| 2026-05-03 21:07 | 50.64236 | 5.52221 | 28168 ft | 459 kts | 59° |
| 2026-05-03 21:07 | 50.65938 | 5.56504 | 28550 ft | 462 kts | 59° |
| 2026-05-03 21:07 | 50.67651 | 5.60820 | 28907 ft | 466 kts | 59° |
| 2026-05-03 21:08 | 50.69374 | 5.65170 | 29322 ft | 468 kts | 59° |
| 2026-05-03 21:08 | 50.71103 | 5.69540 | 29704 ft | 471 kts | 59° |
| 2026-05-03 21:08 | 50.72838 | 5.73934 | 30054 ft | 474 kts | 59° |
| 2026-05-03 21:08 | 50.74586 | 5.78368 | 30374 ft | 477 kts | 59° |
| 2026-05-03 21:09 | 50.76340 | 5.82823 | 30678 ft | 479 kts | 59° |
| 2026-05-03 21:09 | 50.78102 | 5.87308 | 30999 ft | 481 kts | 59° |
| 2026-05-03 21:09 | 50.79872 | 5.91820 | 31310 ft | 484 kts | 59° |
| 2026-05-03 21:09 | 50.81625 | 5.96298 | 31630 ft | 486 kts | 59° |
| 2026-05-03 21:10 | 50.83406 | 6.00857 | 31933 ft | 489 kts | 59° |
| 2026-05-03 21:10 | 50.85198 | 6.05448 | 32239 ft | 491 kts | 59° |
| 2026-05-03 21:10 | 50.86989 | 6.10047 | 32636 ft | 491 kts | 59° |
| 2026-05-03 21:10 | 50.88783 | 6.14661 | 32935 ft | 491 kts | 60° |
| 2026-05-03 21:11 | 50.92344 | 6.23848 | 32965 ft | 487 kts | 60° |
| 2026-05-03 21:11 | 50.95881 | 6.33000 | 32965 ft | 487 kts | 60° |
| 2026-05-03 21:12 | 50.99416 | 6.42184 | 32954 ft | 487 kts | 60° |
| 2026-05-03 21:12 | 51.02918 | 6.51313 | 32956 ft | 487 kts | 60° |
| 2026-05-03 21:13 | 51.06439 | 6.60523 | 32963 ft | 487 kts | 60° |
| 2026-05-03 21:13 | 51.09941 | 6.69716 | 32961 ft | 484 kts | 60° |
| 2026-05-03 21:14 | 51.13409 | 6.78854 | 32961 ft | 482 kts | 60° |
| 2026-05-03 21:14 | 51.16869 | 6.88002 | 32965 ft | 482 kts | 61° |
| 2026-05-03 21:15 | 51.20326 | 6.97178 | 32968 ft | 483 kts | 61° |
| 2026-05-03 21:15 | 51.23778 | 7.06370 | 32961 ft | 482 kts | 61° |
| 2026-05-03 21:16 | 51.27219 | 7.15568 | 32967 ft | 483 kts | 61° |
| 2026-05-03 21:16 | 51.30650 | 7.24769 | 32962 ft | 481 kts | 62° |
| 2026-05-03 21:17 | 51.33486 | 7.32404 | 32967 ft | 480 kts | 62° |
| 2026-05-03 21:17 | 51.37360 | 7.43269 | 32955 ft | 478 kts | 71° |
| 2026-05-03 21:18 | 51.39683 | 7.53159 | 32953 ft | 478 kts | 72° |
| 2026-05-03 21:18 | 51.42058 | 7.63106 | 32966 ft | 478 kts | 72° |
| 2026-05-03 21:19 | 51.44430 | 7.73069 | 32947 ft | 477 kts | 73° |
| 2026-05-03 21:19 | 51.46787 | 7.83013 | 32965 ft | 477 kts | 73° |
| 2026-05-03 21:20 | 51.49137 | 7.92975 | 32963 ft | 477 kts | 73° |
| 2026-05-03 21:20 | 51.51478 | 8.02944 | 32962 ft | 477 kts | 73° |
| 2026-05-03 21:21 | 51.53415 | 8.11231 | 32972 ft | 477 kts | 73° |
| 2026-05-03 21:21 | 51.56121 | 8.22856 | 32923 ft | 478 kts | 73° |
| 2026-05-03 21:22 | 51.58065 | 8.31251 | 32954 ft | 478 kts | 73° |
| 2026-05-03 21:22 | 51.60361 | 8.41207 | 32945 ft | 477 kts | 73° |
| 2026-05-03 21:23 | 51.62677 | 8.51293 | 32967 ft | 477 kts | 73° |
| 2026-05-03 21:23 | 51.64953 | 8.61255 | 32965 ft | 477 kts | 73° |
| 2026-05-03 21:24 | 51.67240 | 8.71312 | 32966 ft | 477 kts | 73° |
| 2026-05-03 21:24 | 51.69513 | 8.81355 | 32958 ft | 475 kts | 73° |
| 2026-05-03 21:25 | 51.71769 | 8.91373 | 32963 ft | 475 kts | 73° |
| 2026-05-03 21:25 | 51.74017 | 9.01402 | 32945 ft | 475 kts | 73° |
| 2026-05-03 21:26 | 51.76242 | 9.11373 | 32941 ft | 475 kts | 74° |
| 2026-05-03 21:26 | 51.78470 | 9.21410 | 32949 ft | 475 kts | 74° |
| 2026-05-03 21:27 | 51.80690 | 9.31455 | 32943 ft | 475 kts | 74° |
| 2026-05-03 21:27 | 51.82901 | 9.41511 | 32945 ft | 475 kts | 74° |
| 2026-05-03 21:28 | 51.85105 | 9.51585 | 32945 ft | 475 kts | 74° |
| 2026-05-03 21:28 | 51.87301 | 9.61669 | 32945 ft | 475 kts | 74° |
| 2026-05-03 21:29 | 51.89486 | 9.71754 | 32942 ft | 475 kts | 74° |
| 2026-05-03 21:29 | 51.91656 | 9.81813 | 32927 ft | 475 kts | 74° |
| 2026-05-03 21:30 | 51.93823 | 9.91914 | 32939 ft | 474 kts | 74° |
| 2026-05-03 21:30 | 51.95981 | 10.02024 | 32939 ft | 474 kts | 74° |
| 2026-05-03 21:31 | 51.98130 | 10.12140 | 32943 ft | 474 kts | 74° |
| 2026-05-03 21:31 | 52.00271 | 10.22272 | 32948 ft | 474 kts | 74° |
| 2026-05-03 21:32 | 52.02402 | 10.32401 | 32923 ft | 474 kts | 75° |
| 2026-05-03 21:32 | 52.04518 | 10.42514 | 32922 ft | 472 kts | 74° |
| 2026-05-03 21:33 | 52.06623 | 10.52621 | 32933 ft | 473 kts | 74° |
| 2026-05-03 21:33 | 52.08732 | 10.62782 | 32931 ft | 475 kts | 74° |
| 2026-05-03 21:34 | 52.10833 | 10.72954 | 32925 ft | 474 kts | 74° |
| 2026-05-03 21:34 | 52.12868 | 10.83155 | 32920 ft | 472 kts | 81° |
| 2026-05-03 21:35 | 52.14021 | 10.93628 | 32920 ft | 470 kts | 83° |
| 2026-05-03 21:35 | 52.15152 | 11.04043 | 32919 ft | 470 kts | 83° |
| 2026-05-03 21:36 | 52.16278 | 11.14527 | 32921 ft | 470 kts | 83° |
| 2026-05-03 21:36 | 52.17396 | 11.25039 | 32920 ft | 470 kts | 83° |
| 2026-05-03 21:37 | 52.18503 | 11.35525 | 32923 ft | 470 kts | 83° |
| 2026-05-03 21:37 | 52.19593 | 11.45950 | 32920 ft | 469 kts | 83° |
| 2026-05-03 21:38 | 52.20678 | 11.56419 | 32912 ft | 468 kts | 83° |
| 2026-05-03 21:38 | 52.21754 | 11.66902 | 32922 ft | 468 kts | 83° |
| 2026-05-03 21:39 | 52.22822 | 11.77398 | 32924 ft | 469 kts | 83° |
| 2026-05-03 21:39 | 52.23880 | 11.87884 | 32925 ft | 469 kts | 83° |
| 2026-05-03 21:40 | 52.24928 | 11.98377 | 32919 ft | 468 kts | 83° |
| 2026-05-03 21:40 | 52.25958 | 12.08781 | 32918 ft | 467 kts | 83° |
| 2026-05-03 21:41 | 52.26985 | 12.19267 | 32921 ft | 467 kts | 83° |
| 2026-05-03 21:41 | 52.28003 | 12.29743 | 32914 ft | 467 kts | 83° |
| 2026-05-03 21:42 | 52.29012 | 12.40235 | 32914 ft | 467 kts | 83° |
| 2026-05-03 21:42 | 52.30010 | 12.50711 | 32908 ft | 466 kts | 83° |
| 2026-05-03 21:43 | 52.30994 | 12.61150 | 32905 ft | 465 kts | 83° |
| 2026-05-03 21:43 | 52.31969 | 12.71594 | 32906 ft | 465 kts | 83° |
| 2026-05-03 21:44 | 52.32935 | 12.82032 | 32908 ft | 465 kts | 83° |
| 2026-05-03 21:44 | 52.33893 | 12.92493 | 32907 ft | 465 kts | 83° |
| 2026-05-03 21:45 | 52.34840 | 13.02949 | 32801 ft | 465 kts | 83° |
| 2026-05-03 21:45 | 52.35305 | 13.08118 | 32450 ft | 464 kts | 83° |
| 2026-05-03 21:45 | 52.35772 | 13.13339 | 32022 ft | 465 kts | 83° |
| 2026-05-03 21:46 | 52.36239 | 13.18583 | 31591 ft | 466 kts | 83° |
| 2026-05-03 21:46 | 52.36704 | 13.23830 | 31168 ft | 467 kts | 83° |
| 2026-05-03 21:46 | 52.37167 | 13.29091 | 30750 ft | 468 kts | 83° |
| 2026-05-03 21:46 | 52.37630 | 13.34366 | 30342 ft | 469 kts | 83° |
| 2026-05-03 21:47 | 52.38092 | 13.39654 | 29928 ft | 470 kts | 83° |
| 2026-05-03 21:47 | 52.38554 | 13.44962 | 29446 ft | 472 kts | 83° |
| 2026-05-03 21:47 | 52.39015 | 13.50281 | 29007 ft | 473 kts | 84° |
| 2026-05-03 21:47 | 52.39476 | 13.55623 | 28874 ft | 474 kts | 83° |
| 2026-05-03 21:48 | 52.39760 | 13.66337 | 28928 ft | 470 kts | 99° |
| 2026-05-03 21:48 | 52.39068 | 13.77030 | 28914 ft | 472 kts | 98° |
| 2026-05-03 21:49 | 52.38507 | 13.87723 | 28896 ft | 473 kts | 91° |
| 2026-05-03 21:49 | 52.38554 | 13.93078 | 28178 ft | 469 kts | 92° |
| 2026-05-03 21:49 | 52.38550 | 13.98436 | 27191 ft | 473 kts | 92° |
| 2026-05-03 21:50 | 52.38524 | 14.03831 | 26471 ft | 471 kts | 92° |
| 2026-05-03 21:50 | 52.38485 | 14.09085 | 25992 ft | 464 kts | 93° |
| 2026-05-03 21:50 | 52.38441 | 14.14327 | 25502 ft | 457 kts | 93° |
| 2026-05-03 21:50 | 52.38395 | 14.19500 | 25022 ft | 452 kts | 93° |
| 2026-05-03 21:51 | 52.38347 | 14.24607 | 24551 ft | 446 kts | 93° |
| 2026-05-03 21:51 | 52.38297 | 14.29660 | 24084 ft | 441 kts | 93° |
| 2026-05-03 21:51 | 52.38246 | 14.34660 | 23627 ft | 437 kts | 94° |
| 2026-05-03 21:51 | 52.38193 | 14.39617 | 23107 ft | 433 kts | 94° |
| 2026-05-03 21:52 | 52.38139 | 14.44519 | 22566 ft | 429 kts | 94° |
| 2026-05-03 21:52 | 52.38083 | 14.49382 | 22037 ft | 425 kts | 94° |
| 2026-05-03 21:52 | 52.38025 | 14.54210 | 21511 ft | 422 kts | 94° |
| 2026-05-03 21:52 | 52.38008 | 14.59003 | 20984 ft | 421 kts | 89° |
| 2026-05-03 21:53 | 52.38350 | 14.63748 | 20493 ft | 419 kts | 85° |
| 2026-05-03 21:53 | 52.38707 | 14.68479 | 19990 ft | 417 kts | 86° |
| 2026-05-03 21:53 | 52.39049 | 14.73109 | 19506 ft | 415 kts | 86° |
| 2026-05-03 21:53 | 52.39391 | 14.77791 | 19021 ft | 413 kts | 86° |
| 2026-05-03 21:54 | 52.39730 | 14.82447 | 18542 ft | 411 kts | 86° |
| 2026-05-03 21:54 | 52.40066 | 14.87086 | 18047 ft | 410 kts | 86° |
| 2026-05-03 21:54 | 52.40399 | 14.91707 | 17503 ft | 408 kts | 86° |
| 2026-05-03 21:54 | 52.40729 | 14.96310 | 16971 ft | 406 kts | 86° |
| 2026-05-03 21:55 | 52.41054 | 15.00893 | 16448 ft | 404 kts | 86° |
| 2026-05-03 21:55 | 52.41378 | 15.05463 | 15931 ft | 402 kts | 86° |
| 2026-05-03 21:55 | 52.41698 | 15.10002 | 15421 ft | 401 kts | 85° |
| 2026-05-03 21:55 | 52.42013 | 15.14511 | 15009 ft | 396 kts | 85° |
| 2026-05-03 21:56 | 52.42324 | 15.18983 | 14605 ft | 392 kts | 85° |
| 2026-05-03 21:56 | 52.42627 | 15.23356 | 14202 ft | 389 kts | 85° |
| 2026-05-03 21:56 | 52.42931 | 15.27786 | 13832 ft | 384 kts | 85° |
| 2026-05-03 21:56 | 52.43223 | 15.32050 | 13469 ft | 379 kts | 85° |
| 2026-05-03 21:57 | 52.43513 | 15.36315 | 13076 ft | 374 kts | 85° |
| 2026-05-03 21:57 | 52.43799 | 15.40528 | 12694 ft | 369 kts | 85° |
| 2026-05-03 21:57 | 52.44079 | 15.44697 | 12308 ft | 365 kts | 85° |
| 2026-05-03 21:57 | 52.44355 | 15.48806 | 11935 ft | 361 kts | 85° |
| 2026-05-03 21:58 | 52.44626 | 15.52883 | 11567 ft | 357 kts | 85° |
| 2026-05-03 21:58 | 52.44892 | 15.56898 | 11206 ft | 353 kts | 85° |
| 2026-05-03 21:58 | 52.45154 | 15.60872 | 10865 ft | 348 kts | 85° |
| 2026-05-03 21:58 | 52.45411 | 15.64785 | 10624 ft | 341 kts | 85° |
| 2026-05-03 21:59 | 52.45661 | 15.68624 | 10373 ft | 335 kts | 85° |
| 2026-05-03 21:59 | 52.45906 | 15.72385 | 10133 ft | 329 kts | 85° |
| 2026-05-03 21:59 | 52.46142 | 15.76037 | 9888 ft | 323 kts | 85° |
| 2026-05-03 21:59 | 52.46376 | 15.79677 | 9623 ft | 318 kts | 85° |
| 2026-05-03 22:00 | 52.46605 | 15.83255 | 9352 ft | 313 kts | 85° |
| 2026-05-03 22:00 | 52.46829 | 15.86777 | 9082 ft | 308 kts | 85° |
| 2026-05-03 22:00 | 52.47049 | 15.90246 | 8815 ft | 305 kts | 85° |
| 2026-05-03 22:00 | 52.47267 | 15.93710 | 8555 ft | 305 kts | 85° |
| 2026-05-03 22:01 | 52.47484 | 15.97165 | 8295 ft | 304 kts | 85° |
| 2026-05-03 22:01 | 52.47700 | 16.00606 | 8037 ft | 303 kts | 85° |
| 2026-05-03 22:01 | 52.47913 | 16.04044 | 7780 ft | 301 kts | 85° |
| 2026-05-03 22:01 | 52.48125 | 16.07460 | 7530 ft | 300 kts | 85° |
| 2026-05-03 22:02 | 52.48334 | 16.10863 | 7262 ft | 299 kts | 85° |
| 2026-05-03 22:02 | 52.48541 | 16.14245 | 6952 ft | 297 kts | 85° |
| 2026-05-03 22:02 | 52.48743 | 16.17547 | 6687 ft | 294 kts | 85° |
| 2026-05-03 22:02 | 52.48945 | 16.20868 | 6417 ft | 291 kts | 85° |
| 2026-05-03 22:03 | 52.49144 | 16.24147 | 6157 ft | 287 kts | 85° |
| 2026-05-03 22:03 | 52.49338 | 16.27358 | 5980 ft | 279 kts | 85° |
| 2026-05-03 22:03 | 52.49527 | 16.30502 | 5814 ft | 273 kts | 85° |
| 2026-05-03 22:03 | 52.49710 | 16.33567 | 5659 ft | 267 kts | 86° |
| 2026-05-03 22:04 | 52.49890 | 16.36582 | 5467 ft | 265 kts | 86° |
| 2026-05-03 22:04 | 52.50062 | 16.39583 | 5282 ft | 263 kts | 89° |
| 2026-05-03 22:04 | 52.49786 | 16.42481 | 5060 ft | 255 kts | 110° |
| 2026-05-03 22:04 | 52.49255 | 16.45254 | 4785 ft | 254 kts | 110° |
| 2026-05-03 22:05 | 52.48736 | 16.48009 | 4503 ft | 252 kts | 110° |
| 2026-05-03 22:05 | 52.48219 | 16.50736 | 4262 ft | 247 kts | 110° |
| 2026-05-03 22:05 | 52.47719 | 16.53366 | 4040 ft | 236 kts | 110° |
| 2026-05-03 22:05 | 52.47235 | 16.55903 | 3639 ft | 232 kts | 111° |
| 2026-05-03 22:06 | 52.46753 | 16.58430 | 3116 ft | 231 kts | 111° |
| 2026-05-03 22:06 | 52.46282 | 16.60896 | 2755 ft | 222 kts | 112° |
| 2026-05-03 22:06 | 52.45830 | 16.63261 | 2444 ft | 212 kts | 112° |
| 2026-05-03 22:06 | 52.45406 | 16.65486 | 2127 ft | 197 kts | 113° |
| 2026-05-03 22:07 | 52.45378 | 16.65634 | 2110 ft | 195 kts | 114° |
| 2026-05-03 22:07 | 52.45061 | 16.67309 | 1883 ft | 181 kts | 115° |
| 2026-05-03 22:07 | 52.44701 | 16.69164 | 1707 ft | 162 kts | 116° |
| 2026-05-03 22:08 | 52.44369 | 16.70892 | 1517 ft | 157 kts | 115° |
| 2026-05-03 22:08 | 52.44044 | 16.72578 | 1293 ft | 154 kts | 115° |
| 2026-05-03 22:08 | 52.43720 | 16.74242 | 1073 ft | 153 kts | 112° |
| 2026-05-03 22:08 | 52.43404 | 16.75891 | 865 ft | 149 kts | 111° |
| 2026-05-03 22:09 | 52.43095 | 16.77499 | 712 ft | 146 kts | 112° |
| 2026-05-03 22:09 | 52.42831 | 16.78896 | 561 ft | 145 kts | 112° |
| 2026-05-03 22:10 | 52.42182 | 16.82228 | 294 ft | 88 kts | 107° |
| 2026-05-03 22:10 | 52.42063 | 16.82843 | 290 ft | 24 kts | 107° |
| 2026-05-03 22:10 | 52.41988 | 16.82992 | 292 ft | 16 kts | 191° |
| 2026-05-03 22:10 | 52.41914 | 16.82952 | 292 ft | 17 kts | 198° |
| 2026-05-03 22:11 | 52.41794 | 16.82887 | 292 ft | 19 kts | 198° |
| 2026-05-03 22:11 | 52.41674 | 16.82866 | 293 ft | 17 kts | 144° |
| 2026-05-03 22:11 | 52.41644 | 16.82996 | 292 ft | 13 kts | 103° |
| 2026-05-03 22:11 | 52.41621 | 16.83065 | 294 ft | 6 kts | 155° |
| 2026-05-03 22:12 | 52.41585 | 16.83060 | 291 ft | 4 kts | 193° |
| 2026-05-03 22:12 | 52.41579 | 16.83058 | 292 ft | 0 kts | 193° |
| 2026-05-03 22:12 | 52.41574 | 16.83056 | 292 ft | 1 kts | 193° |
| 2026-05-03 22:12 | 52.41570 | 16.83055 | 293 ft | 0 kts | 193° |